Terminal Aerodrome Forecast
Issued by NWS Huntsville, AL

Home | Current Version | Previous Version | Text Only | Print | Product List | Glossary On
Versions: 1 2 3 4 5 6 7 8 9 10 11 12
000
FTUS44 KHUN 301123
TAFHSV
TAF
KHSV 301123Z 3012/0112 00000KT 6SM BR SCT003
      TEMPO 3012/3015 00000KT 2SM BR BKN003
     FM301500 28005KT P6SM BKN015
     FM301800 30010KT P6SM SCT030
     FM010000 VRB03KT P6SM SCT050=

USA.gov is the U.S. government's official web portal to all federal, state and local government web resources and services.